Hico, Texas
Current Conditions -  °F | °C
As of 1:15 PM on Thursday 30 Oct 2014 (Local Time) from KSEP Reporting Station
Clear Clear  
Wind Chill: 75°   Ceiling: Unl
Heat Index: 75°   Visibility: 10mi
Dew Point: 58°   Wind: 7mph
Humidity: 56%   Direction: 170°S
Pressure: 30.16"   Gusts: NA
Location:  31.98°N, 98.03°W
Report Text: KSEP 301815Z AUTO 17006KT 10SM CLR 24/15 A3016 RMK AO2 T02400146
Loading
Personal Weather Stations






























Interactive Weather Map
Tropical Storm Tracking
New forecast layout! Learn more

10-Day Weather Forecast

Advertisements
Track Severe Weather on mobile